オスロ空港の過去48時間の天気

オスロ空港 (Oslo / Gardermoen)

現在時刻: 11/27 01:03 CET (11/27 00:03 UTC) 以下の時間は現地時間です。

過去48時間のMETAR気象情報
時間 風向 風速(m/s) 視程 気温(℃) 湿度(%) 気圧(hPa) 天気現象
27 00:50 1 10km以上 -9 92 1000
27 00:20 2 10km以上 -9 85 1000
26 23:50 北北西 2 10km以上 -8 93 999
26 23:20 1 10km以上 -8 93 999
26 22:50 2 10km以上 -7 86 999
26 22:20 北北東 2 10km以上 -8 93 999
26 21:50 北東 3 10km以上 -7 93 998
26 21:20 北東 2 10km以上 -8 86 998
26 20:50 北北東 2 10km以上 -7 86 998
ENGM 262350Z 01002KT CAVOK M09/M10 Q1000
ENGM 262320Z 01003KT CAVOK M09/M11 Q1000
ENGM 262250Z 34003KT CAVOK M08/M09 Q0999
ENGM 262220Z 35002KT CAVOK M08/M09 Q0999
ENGM 262150Z 36004KT CAVOK M07/M09 Q0999 NOSIG
ENGM 262120Z 03004KT 360V060 CAVOK M08/M09 Q0999 NOSIG
ENGM 262050Z 05005KT 360V070 CAVOK M07/M08 Q0998 NOSIG
ENGM 262020Z 05004KT CAVOK M08/M10 Q0998 NOSIG
ENGM 261950Z 03003KT CAVOK M07/M09 Q0998 NOSIG